aviador You're here:

OIAG Decoded Metar

AGHAJARI in IRAN
Report Time2018-07-21 08:00:00
UTC Time2018-07-21 08:12:33
Flight Rules mvfr MVFR
Wind320° at 06 kt
W.Decomp.*RWY 31: 6.0 kt HW 0.7 kt RCW
W.Rank320° ranks 1
Current wind is below 320° avg. (9.5)
Visibility5000 m
Phenomena:Haze
Clouds:N/A
Expected CloudBase > 14,400 ft AGL from Temp-Dew spread
CeilingNone
Temp42°C (ISA +27)
Dew Point06°C (11% RH)
Heat Index39.3°C
AAT38.8°C
QNH0995 hPa
Density Alt3,871 ft
Elevation95 ft
Report Wrong Elevation
Raw Report
METAR OIAG 210800Z 32006KT 5000 HZ NSC 42/06 Q0995=

Extra information for OIAG:More info

Metar Taf Metar & Taf Last 4 Metars F.Rules Stats Wind Profile Meteogram Temp Stats Airport Information Weather charts Add Link Nearby VenuesMetar ALERT Operation Metar Decoded Social comments